createdAt,value
2024-01-05T00:01:19.149Z,5.00
2024-01-05T00:03:48.400Z,6.80
2024-01-05T00:06:16.315Z,5.30
2024-01-05T00:08:44.290Z,6.30
2024-01-05T00:11:19.954Z,4.70
2024-01-05T00:13:48.081Z,5.70
2024-01-05T00:16:19.545Z,5.70
2024-01-05T00:18:47.886Z,6.10
2024-01-05T00:21:22.906Z,5.10
2024-01-05T00:23:51.706Z,5.60
2024-01-05T00:26:20.324Z,4.30
2024-01-05T00:28:48.896Z,4.90
2024-01-05T00:31:17.083Z,3.70
2024-01-05T00:33:45.732Z,5.20
2024-01-05T00:36:14.741Z,4.80
2024-01-05T00:38:48.436Z,4.80
2024-01-05T00:41:22.263Z,5.00
2024-01-05T00:43:50.141Z,4.20
2024-01-05T00:46:17.955Z,5.30
2024-01-05T00:48:45.898Z,4.60
2024-01-05T00:51:14.898Z,4.60
2024-01-05T00:53:42.616Z,4.10
2024-01-05T00:56:10.451Z,4.30
2024-01-05T00:58:38.330Z,3.90
2024-01-05T01:01:10.149Z,4.00
2024-01-05T01:03:38.043Z,4.40
2024-01-05T01:06:05.986Z,5.00
2024-01-05T01:08:33.968Z,4.30
2024-01-05T01:11:15.517Z,4.50
2024-01-05T01:13:43.529Z,5.40
2024-01-05T01:16:12.712Z,5.20
2024-01-05T01:18:40.843Z,5.00
2024-01-05T01:21:08.914Z,5.80
2024-01-05T01:23:36.711Z,5.90
2024-01-05T01:26:04.685Z,5.90
2024-01-05T01:28:32.656Z,6.10
2024-01-05T01:31:00.786Z,5.80
2024-01-05T01:33:28.837Z,5.20
2024-01-05T01:35:56.755Z,5.50
2024-01-05T01:38:24.757Z,5.50
2024-01-05T01:40:55.770Z,5.60
2024-01-05T01:43:25.837Z,5.10
2024-01-05T01:45:56.549Z,5.80
2024-01-05T01:48:25.346Z,6.40
2024-01-05T01:50:55.512Z,5.50
2024-01-05T01:53:24.514Z,5.90
2024-01-05T01:55:52.669Z,5.80
2024-01-05T01:58:21.496Z,5.30
2024-01-05T02:00:50.521Z,5.70
2024-01-05T02:03:19.343Z,5.20
2024-01-05T02:05:48.901Z,5.60
2024-01-05T02:08:17.253Z,4.80
2024-01-05T02:10:47.488Z,4.70
2024-01-05T02:13:15.325Z,4.60
2024-01-05T02:15:43.110Z,4.50
2024-01-05T02:18:12.675Z,5.50
2024-01-05T02:20:41.498Z,4.70
2024-01-05T02:23:13.349Z,5.10
2024-01-05T02:25:41.133Z,4.30
2024-01-05T02:28:08.855Z,4.20
2024-01-05T02:30:36.935Z,4.60
2024-01-05T02:33:05.158Z,4.40
2024-01-05T02:35:33.061Z,4.90
2024-01-05T02:38:02.173Z,4.70
2024-01-05T02:40:37.759Z,5.00
2024-01-05T02:43:05.638Z,4.90
2024-01-05T02:45:34.499Z,4.10
2024-01-05T02:48:03.703Z,4.50
2024-01-05T02:50:31.620Z,4.50
2024-01-05T02:52:59.642Z,4.30
2024-01-05T02:55:27.358Z,4.90
2024-01-05T02:57:56.344Z,4.20
2024-01-05T03:00:24.458Z,4.30
2024-01-05T03:02:52.598Z,4.30
2024-01-05T03:05:20.680Z,4.20
2024-01-05T03:07:52.294Z,4.20
2024-01-05T03:10:20.320Z,4.20
2024-01-05T03:12:49.608Z,4.20
2024-01-05T03:15:17.589Z,4.20
2024-01-05T03:17:45.897Z,3.60
2024-01-05T03:20:13.862Z,4.30
2024-01-05T03:22:44.956Z,4.40
2024-01-05T03:25:13.118Z,3.00
2024-01-05T03:27:41.169Z,4.00
2024-01-05T03:30:09.424Z,3.70
2024-01-05T03:32:37.523Z,3.40
2024-01-05T03:35:05.569Z,3.80
2024-01-05T03:37:33.591Z,3.80
2024-01-05T03:40:01.436Z,3.50
2024-01-05T03:42:30.531Z,3.00
2024-01-05T03:44:58.618Z,3.90
2024-01-05T03:47:33.637Z,3.50
2024-01-05T03:50:01.569Z,3.40
2024-01-05T03:52:29.703Z,3.00
2024-01-05T03:54:57.887Z,3.10
2024-01-05T03:57:29.988Z,3.10
2024-01-05T04:00:00.105Z,3.50
2024-01-05T04:02:28.227Z,3.20
2024-01-05T04:04:56.741Z,3.50
2024-01-05T04:07:25.063Z,3.40
2024-01-05T04:09:52.833Z,3.50
2024-01-05T04:12:20.995Z,3.00
2024-01-05T04:14:49.692Z,3.00
2024-01-05T04:17:17.512Z,3.50
2024-01-05T04:19:45.776Z,3.60
2024-01-05T04:22:18.991Z,3.30
2024-01-05T04:24:46.831Z,3.60
2024-01-05T04:27:14.727Z,3.60
2024-01-05T04:29:42.565Z,3.10
2024-01-05T04:32:17.163Z,3.50
2024-01-05T04:34:48.983Z,3.40
2024-01-05T04:37:16.934Z,3.40
2024-01-05T04:39:51.441Z,3.40
2024-01-05T04:42:19.244Z,3.60
2024-01-05T04:44:47.165Z,3.10
2024-01-05T04:47:14.976Z,2.80
2024-01-05T04:49:45.732Z,3.20
2024-01-05T04:52:16.416Z,3.20
2024-01-05T04:54:44.440Z,3.20
2024-01-05T04:57:12.398Z,3.20
2024-01-05T04:59:42.551Z,2.80
2024-01-05T05:02:10.492Z,2.80
2024-01-05T05:04:38.266Z,2.40
2024-01-05T05:07:08.381Z,3.20
2024-01-05T05:09:36.782Z,3.40
2024-01-05T05:12:05.130Z,3.20
2024-01-05T05:14:33.143Z,3.20
2024-01-05T05:17:00.943Z,3.90
2024-01-05T05:19:28.872Z,2.80
2024-01-05T05:21:56.849Z,4.00
2024-01-05T05:24:24.765Z,4.00
2024-01-05T05:26:52.745Z,3.40
2024-01-05T05:29:20.547Z,3.30
2024-01-05T05:31:48.443Z,2.50
2024-01-05T05:34:22.986Z,2.90
2024-01-05T05:36:54.734Z,3.00
2024-01-05T05:39:22.581Z,3.20
2024-01-05T05:41:58.266Z,3.30
2024-01-05T05:44:26.334Z,3.00
2024-01-05T05:46:54.790Z,3.10
2024-01-05T05:49:23.419Z,3.50
2024-01-05T05:51:51.537Z,3.50
2024-01-05T05:54:19.486Z,2.90
2024-01-05T05:56:47.334Z,3.30
2024-01-05T05:59:15.148Z,3.80
2024-01-05T06:01:43.057Z,3.30
2024-01-05T06:04:11.304Z,4.60
2024-01-05T06:06:39.369Z,4.30
2024-01-05T06:09:09.804Z,4.30
2024-01-05T06:11:37.696Z,3.90
2024-01-05T06:14:05.732Z,3.60
2024-01-05T06:16:37.907Z,3.30
2024-01-05T06:19:09.842Z,3.30
2024-01-05T06:21:37.946Z,3.30
2024-01-05T06:24:05.956Z,3.60
2024-01-05T06:26:33.884Z,3.70
2024-01-05T06:29:01.958Z,4.20
2024-01-05T06:31:29.875Z,3.90
2024-01-05T06:34:01.539Z,3.80
2024-01-05T06:36:34.798Z,5.30
2024-01-05T06:39:02.874Z,13.30
2024-01-05T06:41:30.618Z,11.00
2024-01-05T06:43:58.437Z,9.40
2024-01-05T06:46:31.409Z,20.30
2024-01-05T06:53:09.791Z,18.20
2024-01-05T06:55:37.858Z,7.30
2024-01-05T06:58:12.338Z,9.70
2024-01-05T07:00:40.646Z,8.60
2024-01-05T07:03:08.848Z,6.30
2024-01-05T07:05:37.354Z,9.90
2024-01-05T07:08:08.829Z,6.40
2024-01-05T07:10:37.055Z,7.60
2024-01-05T07:13:08.279Z,6.30
2024-01-05T07:15:36.260Z,10.50
2024-01-05T07:18:07.394Z,7.30
2024-01-05T07:20:35.330Z,6.80
2024-01-05T07:23:03.388Z,9.80
2024-01-05T07:25:31.166Z,7.10
2024-01-05T07:28:02.828Z,11.20
2024-01-05T07:30:30.932Z,10.30
2024-01-05T07:32:59.130Z,11.60
2024-01-05T07:35:29.454Z,9.20
2024-01-05T07:37:58.597Z,7.20
2024-01-05T07:40:29.389Z,5.20
2024-01-05T07:42:57.329Z,4.80
2024-01-05T07:45:25.236Z,5.30
2024-01-05T07:47:56.213Z,4.30
2024-01-05T07:50:24.336Z,3.20
2024-01-05T07:52:52.464Z,3.70
2024-01-05T07:55:20.667Z,2.90
2024-01-05T07:57:48.960Z,3.60
2024-01-05T08:00:26.492Z,3.80
2024-01-05T08:02:54.989Z,3.50
2024-01-05T08:05:23.780Z,4.60
2024-01-05T08:07:51.668Z,4.50
2024-01-05T08:10:25.051Z,4.70
2024-01-05T08:12:53.132Z,5.40
2024-01-05T08:15:21.244Z,5.10
2024-01-05T08:17:49.112Z,6.10
2024-01-05T08:20:17.385Z,5.20
2024-01-05T08:22:45.175Z,5.40
2024-01-05T08:25:14.235Z,5.90
2024-01-05T08:27:42.395Z,6.40
2024-01-05T08:30:13.593Z,6.70
2024-01-05T08:32:42.644Z,7.50
2024-01-05T08:35:10.511Z,6.60
2024-01-05T08:37:39.488Z,5.60
2024-01-05T08:40:08.948Z,7.80
2024-01-05T08:42:37.430Z,7.90
2024-01-05T08:45:05.813Z,6.30
2024-01-05T08:47:33.726Z,6.20
2024-01-05T08:50:01.731Z,6.00
2024-01-05T08:52:29.622Z,5.80
2024-01-05T08:54:57.385Z,6.30
2024-01-05T08:57:25.253Z,7.10
2024-01-05T08:59:53.348Z,8.30
2024-01-05T09:02:21.102Z,16.70
2024-01-05T09:04:49.113Z,6.60
2024-01-05T09:07:17.119Z,6.50
2024-01-05T09:09:51.226Z,6.20
2024-01-05T09:12:19.032Z,5.40
2024-01-05T09:14:47.062Z,4.50
2024-01-05T09:17:18.848Z,4.20
2024-01-05T09:19:46.875Z,5.60
2024-01-05T09:22:15.033Z,5.10
2024-01-05T09:24:43.130Z,5.80
2024-01-05T09:27:10.956Z,5.50
2024-01-05T09:29:41.768Z,5.00
2024-01-05T09:32:09.849Z,4.50
2024-01-05T09:34:38.068Z,7.60
2024-01-05T09:37:06.270Z,6.30
2024-01-05T09:39:34.342Z,5.30
2024-01-05T09:42:02.329Z,5.40
2024-01-05T09:44:31.157Z,4.50
2024-01-05T09:46:59.054Z,4.90
2024-01-05T09:49:27.265Z,4.80
2024-01-05T09:51:57.439Z,6.60
2024-01-05T09:54:25.354Z,6.80
2024-01-05T09:56:53.398Z,8.30
2024-01-05T09:59:21.702Z,7.80
2024-01-05T10:01:51.106Z,5.10
2024-01-05T10:04:20.893Z,4.40
2024-01-05T10:06:59.093Z,5.30
2024-01-05T10:09:28.538Z,6.10
2024-01-05T10:11:56.914Z,7.40
2024-01-05T10:14:28.767Z,4.20
2024-01-05T10:17:07.708Z,4.70
2024-01-05T10:19:42.954Z,4.80
2024-01-05T10:22:12.103Z,4.70
2024-01-05T10:24:40.756Z,4.90
2024-01-05T10:27:12.773Z,5.10
2024-01-05T10:29:45.736Z,4.10
2024-01-05T10:32:18.922Z,3.50
2024-01-05T10:37:17.224Z,4.70
2024-01-05T10:39:53.339Z,4.80
2024-01-05T10:42:29.353Z,5.40
2024-01-05T10:45:04.392Z,4.90
2024-01-05T10:47:37.950Z,5.70
2024-01-05T10:50:07.910Z,5.00
2024-01-05T10:52:36.270Z,4.50
2024-01-05T10:55:06.078Z,4.90
2024-01-05T10:57:36.801Z,6.30
2024-01-05T11:00:06.945Z,5.60
2024-01-05T11:02:42.934Z,5.30
2024-01-05T11:05:13.105Z,5.40
2024-01-05T11:07:42.472Z,6.50
2024-01-05T11:10:36.918Z,8.00
2024-01-05T11:13:23.379Z,4.10
2024-01-05T11:15:51.133Z,3.70
2024-01-05T11:18:38.142Z,3.90
2024-01-05T11:21:13.345Z,4.20
2024-01-05T11:23:43.546Z,4.20
2024-01-05T11:26:30.549Z,4.80
2024-01-05T11:29:02.660Z,4.60
2024-01-05T11:31:48.993Z,4.70
2024-01-05T11:34:36.562Z,5.40
2024-01-05T11:37:06.225Z,4.40
2024-01-05T11:39:47.212Z,5.10
2024-01-05T11:42:25.030Z,6.20
2024-01-05T11:44:53.673Z,7.30
2024-01-05T11:47:44.630Z,6.00
2024-01-05T11:50:35.194Z,6.30
2024-01-05T11:53:14.218Z,4.60
2024-01-05T11:55:49.072Z,5.00
2024-01-05T11:58:17.961Z,5.70
2024-01-05T12:00:47.815Z,5.40
2024-01-05T12:03:16.754Z,4.80
2024-01-05T12:05:52.536Z,4.90
2024-01-05T12:08:41.785Z,5.20
2024-01-05T12:11:11.657Z,5.10
2024-01-05T12:13:40.154Z,15.00
2024-01-05T12:16:09.601Z,6.80
2024-01-05T12:18:45.881Z,5.70
2024-01-05T12:21:17.840Z,5.80
2024-01-05T12:23:52.703Z,4.70
2024-01-05T12:28:49.747Z,6.00
2024-01-05T12:31:19.034Z,5.30
2024-01-05T12:33:52.821Z,5.30
2024-01-05T12:36:24.435Z,27.10
2024-01-05T12:38:52.499Z,7.30
2024-01-05T12:41:21.680Z,5.40
2024-01-05T12:43:54.048Z,5.50
2024-01-05T12:46:24.503Z,6.20
2024-01-05T12:48:53.284Z,4.40
2024-01-05T12:51:24.465Z,4.80
2024-01-05T12:54:00.611Z,5.90
2024-01-05T12:56:28.612Z,6.20
2024-01-05T12:58:56.779Z,5.90
2024-01-05T13:01:25.556Z,5.00
2024-01-05T13:03:54.789Z,4.70
2024-01-05T13:06:32.395Z,5.00
2024-01-05T13:09:01.088Z,3.80
2024-01-05T13:11:36.377Z,3.80
2024-01-05T13:14:04.744Z,4.80
2024-01-05T13:16:35.398Z,5.30
2024-01-05T13:19:06.066Z,4.80
2024-01-05T13:21:36.405Z,4.50
2024-01-05T13:24:04.985Z,4.40
2024-01-05T13:26:34.178Z,4.40
2024-01-05T13:29:03.505Z,3.80
2024-01-05T13:31:31.682Z,4.00
2024-01-05T13:33:59.885Z,4.90
2024-01-05T13:36:30.762Z,5.20
2024-01-05T13:38:59.281Z,7.50
2024-01-05T13:41:27.669Z,11.10
2024-01-05T13:43:56.892Z,11.20
2024-01-05T13:46:25.039Z,9.60
2024-01-05T13:48:53.055Z,8.10
2024-01-05T13:51:21.617Z,7.50
2024-01-05T13:53:51.685Z,6.10
2024-01-05T13:56:21.076Z,5.10
2024-01-05T13:58:48.922Z,4.70
2024-01-05T14:01:17.134Z,4.60
2024-01-05T14:03:45.392Z,6.20
2024-01-05T14:06:13.986Z,6.00
2024-01-05T14:08:42.913Z,5.90
2024-01-05T14:11:16.288Z,4.80
2024-01-05T14:13:44.493Z,4.70
2024-01-05T14:16:12.463Z,4.90
2024-01-05T14:18:40.879Z,6.20
2024-01-05T14:21:10.541Z,6.20
2024-01-05T14:23:38.793Z,5.60
2024-01-05T14:26:11.120Z,6.10
2024-01-05T14:29:02.367Z,7.50
2024-01-05T14:31:31.615Z,9.30
2024-01-05T14:33:59.611Z,12.70
2024-01-05T14:36:28.193Z,14.60
2024-01-05T14:38:56.736Z,22.10
2024-01-05T14:41:29.280Z,17.90
2024-01-05T14:43:59.005Z,19.50
2024-01-05T14:46:32.097Z,13.80
2024-01-05T14:49:02.694Z,11.10
2024-01-05T14:51:38.757Z,9.30
2024-01-05T14:54:06.897Z,8.10
2024-01-05T14:56:36.877Z,7.30
2024-01-05T14:59:05.348Z,8.30
2024-01-05T15:01:34.802Z,8.00
2024-01-05T15:04:04.115Z,6.90
2024-01-05T15:06:32.947Z,6.80
2024-01-05T15:09:02.458Z,7.20
2024-01-05T15:11:33.115Z,6.40
2024-01-05T15:14:04.174Z,6.90
2024-01-05T15:16:47.825Z,8.10
2024-01-05T15:19:19.680Z,7.40
2024-01-05T15:21:47.733Z,6.80
2024-01-05T15:24:16.159Z,7.10
2024-01-05T15:26:47.625Z,7.00
2024-01-05T15:29:16.518Z,8.50
2024-01-05T15:31:44.795Z,12.20
2024-01-05T15:34:13.656Z,18.80
2024-01-05T15:36:42.215Z,53.50
2024-01-05T15:39:11.494Z,70.50
2024-01-05T15:41:40.216Z,78.00
2024-01-05T15:44:08.243Z,92.00
2024-01-05T15:46:36.620Z,110.10
2024-01-05T15:49:04.769Z,134.50
2024-01-05T15:51:42.300Z,139.70
2024-01-05T15:54:10.598Z,147.30
2024-01-05T15:56:39.544Z,154.10
2024-01-05T15:59:08.443Z,136.90
2024-01-05T16:01:42.473Z,120.20
2024-01-05T16:04:13.083Z,103.10
2024-01-05T16:06:41.915Z,105.10
2024-01-05T16:09:09.861Z,92.50
2024-01-05T16:14:56.510Z,67.20
2024-01-05T16:17:25.630Z,72.90
2024-01-05T16:19:53.777Z,59.10
2024-01-05T16:22:22.081Z,58.80
2024-01-05T16:25:00.887Z,77.40
2024-01-05T16:27:34.860Z,111.40
2024-01-05T16:30:06.002Z,166.80
2024-01-05T16:32:35.207Z,249.90
2024-01-05T16:35:11.597Z,410.60
2024-01-05T16:37:45.270Z,294.00
2024-01-05T16:40:40.931Z,240.10
2024-01-05T16:43:18.667Z,116.60
2024-01-05T16:45:48.592Z,68.80
2024-01-05T16:48:20.667Z,129.80
2024-01-05T16:51:10.840Z,242.20
2024-01-05T16:53:38.912Z,293.40
2024-01-05T16:56:07.406Z,259.00
2024-01-05T16:58:39.396Z,201.00
2024-01-05T17:01:08.135Z,227.00
2024-01-05T17:03:36.443Z,224.80
2024-01-05T17:06:08.767Z,191.10
2024-01-05T17:08:40.884Z,157.80
2024-01-05T17:11:09.194Z,143.10
2024-01-05T17:13:37.072Z,115.30
2024-01-05T17:16:09.922Z,108.60
2024-01-05T17:18:44.162Z,92.60
2024-01-05T17:21:13.416Z,79.40
2024-01-05T17:24:04.043Z,60.90
2024-01-05T17:26:39.068Z,61.40
2024-01-05T17:29:07.762Z,49.50
2024-01-05T17:31:35.816Z,71.00
2024-01-05T17:34:04.598Z,103.10
2024-01-05T17:36:38.023Z,243.30
2024-01-05T17:39:08.221Z,113.30
2024-01-05T17:41:36.928Z,52.60
2024-01-05T17:44:04.971Z,64.40
2024-01-05T17:46:37.314Z,68.50
2024-01-05T17:49:05.643Z,41.70
2024-01-05T17:51:37.800Z,60.40
2024-01-05T17:54:06.098Z,99.10
2024-01-05T17:56:34.417Z,100.80
2024-01-05T17:59:09.431Z,80.80
2024-01-05T18:01:47.547Z,83.90
2024-01-05T18:04:20.170Z,79.70
2024-01-05T18:06:51.063Z,89.30
2024-01-05T18:09:20.319Z,76.80
2024-01-05T18:11:48.644Z,102.60
2024-01-05T18:14:17.325Z,148.20
2024-01-05T18:16:46.812Z,141.90
2024-01-05T18:19:14.843Z,102.20
2024-01-05T18:21:43.374Z,112.70
2024-01-05T18:24:17.974Z,152.70
2024-01-05T18:26:46.817Z,198.40
2024-01-05T18:29:22.008Z,121.20
2024-01-05T18:31:57.730Z,168.80
2024-01-05T18:34:26.959Z,133.40
2024-01-05T18:36:55.680Z,153.10
2024-01-05T18:39:23.834Z,127.40
2024-01-05T18:41:51.886Z,149.20
2024-01-05T18:44:19.820Z,175.90
2024-01-05T18:46:49.985Z,296.60
2024-01-05T18:49:19.664Z,125.60
2024-01-05T18:51:47.854Z,63.70
2024-01-05T18:54:23.344Z,47.30
2024-01-05T18:56:57.700Z,35.20
2024-01-05T18:59:28.542Z,64.60
2024-01-05T19:02:00.001Z,39.50
2024-01-05T19:04:28.349Z,26.60
2024-01-05T19:06:56.725Z,36.80
2024-01-05T19:09:25.350Z,75.50
2024-01-05T19:11:57.486Z,71.40
2024-01-05T19:14:25.450Z,37.90
2024-01-05T19:16:53.420Z,30.50
2024-01-05T19:19:21.735Z,21.90
2024-01-05T19:21:56.326Z,26.50
2024-01-05T19:24:29.787Z,97.70
2024-01-05T19:27:02.376Z,47.70
2024-01-05T19:29:33.809Z,40.20
2024-01-05T19:32:03.460Z,45.90
2024-01-05T19:34:32.671Z,41.50
2024-01-05T19:37:02.242Z,22.80
2024-01-05T19:39:30.981Z,16.50
2024-01-05T19:42:00.860Z,12.70
2024-01-05T19:44:28.873Z,14.70
2024-01-05T19:46:57.222Z,19.40
2024-01-05T19:49:28.802Z,32.30
2024-01-05T19:51:57.305Z,36.20
2024-01-05T19:54:32.039Z,29.30
2024-01-05T19:57:06.022Z,31.10
2024-01-05T19:59:41.322Z,36.50
2024-01-05T20:02:10.680Z,48.10
2024-01-05T20:04:39.581Z,54.30
2024-01-05T20:07:08.308Z,53.00
2024-01-05T20:09:36.344Z,61.20
2024-01-05T20:12:14.530Z,48.50
2024-01-05T20:14:44.618Z,58.60
2024-01-05T20:17:13.972Z,100.20
2024-01-05T20:19:43.093Z,90.50
2024-01-05T20:22:11.461Z,73.90
2024-01-05T20:24:40.714Z,49.90
2024-01-05T20:27:42.947Z,70.40
2024-01-05T20:30:14.097Z,47.90
2024-01-05T20:32:46.759Z,41.20
2024-01-05T20:35:18.004Z,42.30
2024-01-05T20:37:47.492Z,79.00
2024-01-05T20:40:15.750Z,154.40
2024-01-05T20:42:44.157Z,87.50
2024-01-05T20:45:17.913Z,101.70
2024-01-05T20:47:47.640Z,76.40
2024-01-05T20:50:19.823Z,58.50
2024-01-05T20:52:49.785Z,57.90
2024-01-05T20:55:30.260Z,60.30
2024-01-05T20:57:59.663Z,110.40
2024-01-05T21:00:36.772Z,117.70
2024-01-05T21:03:22.064Z,136.20
2024-01-05T21:06:26.188Z,96.70
2024-01-05T21:09:24.149Z,67.70
2024-01-05T21:11:57.925Z,38.10
2024-01-05T21:14:30.419Z,37.90
2024-01-05T21:17:22.126Z,92.70
2024-01-05T21:19:59.916Z,101.70
2024-01-05T21:22:29.927Z,134.50
2024-01-05T21:25:03.491Z,34.90
2024-01-05T21:27:56.119Z,26.30
2024-01-05T21:30:44.953Z,22.40
2024-01-05T21:33:31.775Z,24.70
2024-01-05T21:39:14.940Z,22.10
2024-01-05T21:41:45.052Z,21.80
2024-01-05T21:44:15.355Z,22.70
2024-01-05T21:46:43.496Z,28.90
2024-01-05T21:49:31.566Z,36.60
2024-01-05T21:52:00.251Z,53.40
2024-01-05T21:54:28.873Z,53.40
2024-01-05T21:57:03.786Z,45.90
2024-01-05T21:59:34.779Z,39.70
2024-01-05T22:02:06.363Z,33.50
2024-01-05T22:04:38.987Z,25.70
2024-01-05T22:07:08.035Z,24.80
2024-01-05T22:09:36.973Z,20.10
2024-01-05T22:12:06.918Z,20.70
2024-01-05T22:14:43.155Z,19.90
2024-01-05T22:17:13.947Z,26.80
2024-01-05T22:19:42.312Z,18.50
2024-01-05T22:22:11.542Z,16.60
2024-01-05T22:24:40.332Z,20.80
2024-01-05T22:27:08.729Z,17.80
2024-01-05T22:29:39.227Z,18.40
2024-01-05T22:32:08.470Z,18.80
2024-01-05T22:34:41.377Z,20.90
2024-01-05T22:37:11.275Z,22.60
2024-01-05T22:39:39.506Z,28.10
2024-01-05T22:42:08.214Z,45.40
2024-01-05T22:44:43.447Z,40.80
2024-01-05T22:47:14.653Z,34.20
2024-01-05T22:49:43.228Z,42.50
2024-01-05T22:52:11.204Z,33.00
2024-01-05T22:54:39.893Z,30.00
2024-01-05T22:57:09.557Z,27.40
2024-01-05T22:59:37.912Z,21.30
2024-01-05T23:02:07.012Z,33.50
2024-01-05T23:04:56.628Z,29.00
2024-01-05T23:07:25.549Z,24.20
2024-01-05T23:09:54.149Z,26.10
2024-01-05T23:12:22.494Z,25.80
2024-01-05T23:14:51.043Z,18.10
2024-01-05T23:17:19.523Z,18.00
2024-01-05T23:19:47.990Z,16.30
2024-01-05T23:22:16.630Z,15.20
2024-01-05T23:24:44.500Z,14.00
2024-01-05T23:27:12.902Z,14.40
2024-01-05T23:29:40.647Z,14.90
2024-01-05T23:32:08.898Z,15.20
2024-01-05T23:34:37.457Z,17.40
2024-01-05T23:37:06.686Z,16.60
2024-01-05T23:39:35.190Z,18.60
2024-01-05T23:42:05.228Z,18.50
2024-01-05T23:45:02.285Z,24.10
2024-01-05T23:47:30.830Z,33.10
2024-01-05T23:49:59.292Z,29.50
2024-01-05T23:52:28.917Z,27.20
2024-01-05T23:55:02.678Z,24.10
2024-01-05T23:57:34.456Z,22.00
